sensor_id;sensor_type;location;lat;lon;timestamp;temperature;humidity
70593;DHT22;58294;42.988;20.338;2023-05-20T00:00:07;307.70;1971.20
70593;DHT22;58294;42.988;20.338;2023-05-20T00:02:34;307.70;1996.80
70593;DHT22;58294;42.988;20.338;2023-05-20T00:04:59;307.60;2201.60
70593;DHT22;58294;42.988;20.338;2023-05-20T00:07:25;307.50;1945.60
70593;DHT22;58294;42.988;20.338;2023-05-20T00:09:51;307.50;2252.80
70593;DHT22;58294;42.988;20.338;2023-05-20T00:12:17;307.40;1920.00
70593;DHT22;58294;42.988;20.338;2023-05-20T00:14:43;307.40;1971.20
70593;DHT22;58294;42.988;20.338;2023-05-20T00:17:09;307.40;1971.20
70593;DHT22;58294;42.988;20.338;2023-05-20T00:19:35;307.40;2022.40
70593;DHT22;58294;42.988;20.338;2023-05-20T00:22:01;307.30;2278.40
70593;DHT22;58294;42.988;20.338;2023-05-20T00:24:27;307.30;1971.20
70593;DHT22;58294;42.988;20.338;2023-05-20T00:26:53;307.30;2022.40
70593;DHT22;58294;42.988;20.338;2023-05-20T00:29:20;307.20;1971.20
70593;DHT22;58294;42.988;20.338;2023-05-20T00:31:46;282.50;1843.20
70593;DHT22;58294;42.988;20.338;2023-05-20T00:34:12;307.20;2022.40
70593;DHT22;58294;42.988;20.338;2023-05-20T00:36:37;282.50;2278.40
70593;DHT22;58294;42.988;20.338;2023-05-20T00:39:03;282.50;1996.80
70593;DHT22;58294;42.988;20.338;2023-05-20T00:41:29;282.50;2022.40
70593;DHT22;58294;42.988;20.338;2023-05-20T00:43:55;282.50;1971.20
70593;DHT22;58294;42.988;20.338;2023-05-20T00:46:22;282.50;2048.00
70593;DHT22;58294;42.988;20.338;2023-05-20T00:48:49;282.50;2048.00
70593;DHT22;58294;42.988;20.338;2023-05-20T00:51:15;282.40;2022.40
70593;DHT22;58294;42.988;20.338;2023-05-20T00:53:42;282.40;1996.80
70593;DHT22;58294;42.988;20.338;2023-05-20T00:56:08;282.40;2022.40
70593;DHT22;58294;42.988;20.338;2023-05-20T00:58:35;282.40;2022.40
70593;DHT22;58294;42.988;20.338;2023-05-20T01:01:02;282.40;1971.20
70593;DHT22;58294;42.988;20.338;2023-05-20T01:03:28;282.30;2073.60
70593;DHT22;58294;42.988;20.338;2023-05-20T01:05:55;282.30;2022.40
70593;DHT22;58294;42.988;20.338;2023-05-20T01:08:22;282.30;2022.40
70593;DHT22;58294;42.988;20.338;2023-05-20T01:13:19;282.10;1971.20
70593;DHT22;58294;42.988;20.338;2023-05-20T01:15:47;282.00;1996.80
70593;DHT22;58294;42.988;20.338;2023-05-20T01:18:14;282.00;2022.40
70593;DHT22;58294;42.988;20.338;2023-05-20T01:20:49;282.00;2022.40
70593;DHT22;58294;42.988;20.338;2023-05-20T01:23:15;281.90;1996.80
70593;DHT22;58294;42.988;20.338;2023-05-20T01:25:41;281.80;2073.60
70593;DHT22;58294;42.988;20.338;2023-05-20T01:28:07;281.90;2022.40
70593;DHT22;58294;42.988;20.338;2023-05-20T01:30:41;281.90;2073.60
70593;DHT22;58294;42.988;20.338;2023-05-20T01:33:09;281.80;2022.40
70593;DHT22;58294;42.988;20.338;2023-05-20T01:35:35;281.90;1945.60
70593;DHT22;58294;42.988;20.338;2023-05-20T01:38:04;281.90;2073.60
70593;DHT22;58294;42.988;20.338;2023-05-20T01:40:31;281.90;2022.40
70593;DHT22;58294;42.988;20.338;2023-05-20T01:42:58;281.90;2073.60
70593;DHT22;58294;42.988;20.338;2023-05-20T01:45:24;281.90;2048.00
70593;DHT22;58294;42.988;20.338;2023-05-20T01:47:50;281.80;2073.60
70593;DHT22;58294;42.988;20.338;2023-05-20T01:50:16;281.80;2099.20
70593;DHT22;58294;42.988;20.338;2023-05-20T01:52:42;281.80;2099.20
70593;DHT22;58294;42.988;20.338;2023-05-20T01:55:08;281.80;2150.40
70593;DHT22;58294;42.988;20.338;2023-05-20T01:57:34;281.90;2099.20
70593;DHT22;58294;42.988;20.338;2023-05-20T02:00:00;281.80;2150.40
70593;DHT22;58294;42.988;20.338;2023-05-20T02:02:25;281.90;2124.80
70593;DHT22;58294;42.988;20.338;2023-05-20T02:04:54;282.00;2150.40
70593;DHT22;58294;42.988;20.338;2023-05-20T02:07:20;282.00;2150.40
70593;DHT22;58294;42.988;20.338;2023-05-20T02:09:46;282.10;2176.00
70593;DHT22;58294;42.988;20.338;2023-05-20T02:12:12;282.20;2176.00
70593;DHT22;58294;42.988;20.338;2023-05-20T02:14:45;282.30;2176.00
70593;DHT22;58294;42.988;20.338;2023-05-20T02:17:15;282.30;2124.80
70593;DHT22;58294;42.988;20.338;2023-05-20T02:19:42;282.30;2073.60
70593;DHT22;58294;42.988;20.338;2023-05-20T02:22:08;282.30;2176.00
70593;DHT22;58294;42.988;20.338;2023-05-20T02:24:34;282.30;2099.20
70593;DHT22;58294;42.988;20.338;2023-05-20T02:27:00;282.30;2201.60
70593;DHT22;58294;42.988;20.338;2023-05-20T02:29:27;282.30;2227.20
70593;DHT22;58294;42.988;20.338;2023-05-20T02:31:53;282.30;2150.40
70593;DHT22;58294;42.988;20.338;2023-05-20T02:34:19;282.40;2201.60
70593;DHT22;58294;42.988;20.338;2023-05-20T02:36:45;282.50;2227.20
70593;DHT22;58294;42.988;20.338;2023-05-20T02:39:11;282.50;2252.80
70593;DHT22;58294;42.988;20.338;2023-05-20T02:41:37;307.20;2278.40
70593;DHT22;58294;42.988;20.338;2023-05-20T02:44:03;307.20;2278.40
70593;DHT22;58294;42.988;20.338;2023-05-20T02:46:30;307.30;2304.00
70593;DHT22;58294;42.988;20.338;2023-05-20T02:48:56;307.40;2304.00
70593;DHT22;58294;42.988;20.338;2023-05-20T02:51:22;307.50;2304.00
70593;DHT22;58294;42.988;20.338;2023-05-20T02:53:48;307.60;2304.00
70593;DHT22;58294;42.988;20.338;2023-05-20T02:56:14;307.70;2278.40
70593;DHT22;58294;42.988;20.338;2023-05-20T02:58:40;307.80;2278.40
70593;DHT22;58294;42.988;20.338;2023-05-20T03:01:06;307.80;2304.00
70593;DHT22;58294;42.988;20.338;2023-05-20T03:03:32;307.80;2252.80
70593;DHT22;58294;42.988;20.338;2023-05-20T03:05:58;307.90;2278.40
70593;DHT22;58294;42.988;20.338;2023-05-20T03:08:24;307.90;2227.20
70593;DHT22;58294;42.988;20.338;2023-05-20T03:10:50;307.90;2304.00
70593;DHT22;58294;42.988;20.338;2023-05-20T03:13:16;307.90;2304.00
70593;DHT22;58294;42.988;20.338;2023-05-20T03:15:42;307.90;2304.00
70593;DHT22;58294;42.988;20.338;2023-05-20T03:18:11;308.10;2278.40
70593;DHT22;58294;42.988;20.338;2023-05-20T03:20:38;308.10;2304.00
70593;DHT22;58294;42.988;20.338;2023-05-20T03:23:06;332.80;2329.60
70593;DHT22;58294;42.988;20.338;2023-05-20T03:25:32;332.80;2304.00
70593;DHT22;58294;42.988;20.338;2023-05-20T03:27:58;332.90;2124.80
70593;DHT22;58294;42.988;20.338;2023-05-20T03:30:27;332.80;2304.00
70593;DHT22;58294;42.988;20.338;2023-05-20T03:32:54;332.90;2278.40
70593;DHT22;58294;42.988;20.338;2023-05-20T03:35:20;332.90;2329.60
70593;DHT22;58294;42.988;20.338;2023-05-20T03:37:46;332.90;2329.60
70593;DHT22;58294;42.988;20.338;2023-05-20T03:40:12;333.00;2329.60
70593;DHT22;58294;42.988;20.338;2023-05-20T03:42:38;333.00;2329.60
70593;DHT22;58294;42.988;20.338;2023-05-20T03:45:04;333.20;2150.40
70593;DHT22;58294;42.988;20.338;2023-05-20T03:47:31;333.10;2329.60
70593;DHT22;58294;42.988;20.338;2023-05-20T03:49:57;333.20;2252.80
70593;DHT22;58294;42.988;20.338;2023-05-20T03:52:23;333.20;2278.40
70593;DHT22;58294;42.988;20.338;2023-05-20T03:54:48;333.20;2329.60
70593;DHT22;58294;42.988;20.338;2023-05-20T03:57:15;333.30;2227.20
70593;DHT22;58294;42.988;20.338;2023-05-20T03:59:41;333.30;2329.60
70593;DHT22;58294;42.988;20.338;2023-05-20T04:02:07;333.30;2304.00
70593;DHT22;58294;42.988;20.338;2023-05-20T04:04:34;333.30;2329.60
70593;DHT22;58294;42.988;20.338;2023-05-20T04:07:00;333.40;2329.60
70593;DHT22;58294;42.988;20.338;2023-05-20T04:09:27;333.60;2124.80
70593;DHT22;58294;42.988;20.338;2023-05-20T04:11:53;333.50;2329.60
70593;DHT22;58294;42.988;20.338;2023-05-20T04:14:19;333.50;2329.60
70593;DHT22;58294;42.988;20.338;2023-05-20T04:16:45;333.50;2252.80
70593;DHT22;58294;42.988;20.338;2023-05-20T04:19:11;333.60;2278.40
70593;DHT22;58294;42.988;20.338;2023-05-20T04:21:37;333.60;2252.80
70593;DHT22;58294;42.988;20.338;2023-05-20T04:24:03;333.60;2278.40
70593;DHT22;58294;42.988;20.338;2023-05-20T04:26:30;333.60;2252.80
70593;DHT22;58294;42.988;20.338;2023-05-20T04:28:55;333.60;2304.00
70593;DHT22;58294;42.988;20.338;2023-05-20T04:31:24;333.70;2304.00
70593;DHT22;58294;42.988;20.338;2023-05-20T04:33:54;333.70;2278.40
70593;DHT22;58294;42.988;20.338;2023-05-20T04:36:20;358.40;2304.00
70593;DHT22;58294;42.988;20.338;2023-05-20T04:38:46;358.40;2304.00
70593;DHT22;58294;42.988;20.338;2023-05-20T04:41:13;358.40;2329.60
70593;DHT22;58294;42.988;20.338;2023-05-20T04:43:40;358.50;2304.00
70593;DHT22;58294;42.988;20.338;2023-05-20T04:46:06;358.50;2304.00
70593;DHT22;58294;42.988;20.338;2023-05-20T04:48:32;358.50;2252.80
70593;DHT22;58294;42.988;20.338;2023-05-20T04:50:58;358.60;2329.60
70593;DHT22;58294;42.988;20.338;2023-05-20T04:53:24;358.60;2329.60
70593;DHT22;58294;42.988;20.338;2023-05-20T04:55:53;358.70;2329.60
70593;DHT22;58294;42.988;20.338;2023-05-20T04:58:19;358.90;2201.60
70593;DHT22;58294;42.988;20.338;2023-05-20T05:00:49;358.80;2304.00
70593;DHT22;58294;42.988;20.338;2023-05-20T05:03:16;358.90;2329.60
70593;DHT22;58294;42.988;20.338;2023-05-20T05:05:42;358.90;2329.60
70593;DHT22;58294;42.988;20.338;2023-05-20T05:08:09;359.00;2329.60
70593;DHT22;58294;42.988;20.338;2023-05-20T05:10:36;359.00;2329.60
70593;DHT22;58294;42.988;20.338;2023-05-20T05:13:02;359.10;2329.60
70593;DHT22;58294;42.988;20.338;2023-05-20T05:15:28;359.10;2278.40
70593;DHT22;58294;42.988;20.338;2023-05-20T05:17:54;359.10;2252.80
70593;DHT22;58294;42.988;20.338;2023-05-20T05:20:21;359.10;2304.00
70593;DHT22;58294;42.988;20.338;2023-05-20T05:22:47;359.10;2176.00
70593;DHT22;58294;42.988;20.338;2023-05-20T05:25:15;359.20;2304.00
70593;DHT22;58294;42.988;20.338;2023-05-20T05:27:41;359.20;2227.20
70593;DHT22;58294;42.988;20.338;2023-05-20T05:30:07;359.20;2252.80
70593;DHT22;58294;42.988;20.338;2023-05-20T05:32:33;359.20;2304.00
70593;DHT22;58294;42.988;20.338;2023-05-20T05:34:59;359.20;2252.80
70593;DHT22;58294;42.988;20.338;2023-05-20T05:37:25;359.20;2227.20
70593;DHT22;58294;42.988;20.338;2023-05-20T05:39:51;359.20;2227.20
70593;DHT22;58294;42.988;20.338;2023-05-20T05:42:17;359.10;2150.40
70593;DHT22;58294;42.988;20.338;2023-05-20T05:44:43;359.10;2201.60
70593;DHT22;58294;42.988;20.338;2023-05-20T05:47:09;359.20;2304.00
70593;DHT22;58294;42.988;20.338;2023-05-20T05:49:35;359.20;2304.00
70593;DHT22;58294;42.988;20.338;2023-05-20T05:52:01;359.20;2278.40
70593;DHT22;58294;42.988;20.338;2023-05-20T05:54:27;359.30;2201.60
70593;DHT22;58294;42.988;20.338;2023-05-20T05:56:53;359.20;2176.00
70593;DHT22;58294;42.988;20.338;2023-05-20T05:59:21;359.30;2278.40
70593;DHT22;58294;42.988;20.338;2023-05-20T06:01:47;359.30;2304.00
70593;DHT22;58294;42.988;20.338;2023-05-20T06:04:13;384.00;2278.40
70593;DHT22;58294;42.988;20.338;2023-05-20T06:06:39;384.10;2227.20
70593;DHT22;58294;42.988;20.338;2023-05-20T06:09:05;384.10;2329.60
70593;DHT22;58294;42.988;20.338;2023-05-20T06:11:31;384.30;2176.00
70593;DHT22;58294;42.988;20.338;2023-05-20T06:13:57;384.20;2329.60
70593;DHT22;58294;42.988;20.338;2023-05-20T06:16:23;384.40;2329.60
70593;DHT22;58294;42.988;20.338;2023-05-20T06:18:49;384.40;2329.60
70593;DHT22;58294;42.988;20.338;2023-05-20T06:21:15;384.50;2304.00
70593;DHT22;58294;42.988;20.338;2023-05-20T06:23:41;384.60;2304.00
70593;DHT22;58294;42.988;20.338;2023-05-20T06:26:07;384.80;2278.40
70593;DHT22;58294;42.988;20.338;2023-05-20T06:28:33;384.80;2304.00
70593;DHT22;58294;42.988;20.338;2023-05-20T06:30:59;409.60;2304.00
70593;DHT22;58294;42.988;20.338;2023-05-20T06:33:26;409.70;2355.20
70593;DHT22;58294;42.988;20.338;2023-05-20T06:35:55;409.80;2355.20
70593;DHT22;58294;42.988;20.338;2023-05-20T06:38:21;410.00;2355.20
70593;DHT22;58294;42.988;20.338;2023-05-20T06:40:47;410.10;2201.60
70593;DHT22;58294;42.988;20.338;2023-05-20T06:43:14;410.10;2201.60
70593;DHT22;58294;42.988;20.338;2023-05-20T06:45:40;410.00;2176.00
70593;DHT22;58294;42.988;20.338;2023-05-20T06:48:06;410.00;2150.40
70593;DHT22;58294;42.988;20.338;2023-05-20T06:50:33;410.00;2099.20
70593;DHT22;58294;42.988;20.338;2023-05-20T06:52:59;409.80;2124.80
70593;DHT22;58294;42.988;20.338;2023-05-20T06:55:26;409.80;2176.00
70593;DHT22;58294;42.988;20.338;2023-05-20T06:57:52;409.70;2227.20
70593;DHT22;58294;42.988;20.338;2023-05-20T07:00:18;409.80;2252.80
70593;DHT22;58294;42.988;20.338;2023-05-20T07:02:44;409.80;2252.80
70593;DHT22;58294;42.988;20.338;2023-05-20T07:05:10;409.80;2304.00
70593;DHT22;58294;42.988;20.338;2023-05-20T07:07:36;410.00;2304.00
70593;DHT22;58294;42.988;20.338;2023-05-20T07:10:02;410.00;2304.00
70593;DHT22;58294;42.988;20.338;2023-05-20T07:12:30;410.10;2278.40
70593;DHT22;58294;42.988;20.338;2023-05-20T07:14:56;410.10;2304.00
70593;DHT22;58294;42.988;20.338;2023-05-20T07:17:23;410.30;2329.60
70593;DHT22;58294;42.988;20.338;2023-05-20T07:19:49;410.40;2329.60
70593;DHT22;58294;42.988;20.338;2023-05-20T07:22:14;410.50;2355.20
70593;DHT22;58294;42.988;20.338;2023-05-20T07:24:40;435.20;2304.00
70593;DHT22;58294;42.988;20.338;2023-05-20T07:27:06;435.30;2252.80
70593;DHT22;58294;42.988;20.338;2023-05-20T07:29:33;435.40;2304.00
70593;DHT22;58294;42.988;20.338;2023-05-20T07:31:59;435.70;2304.00
70593;DHT22;58294;42.988;20.338;2023-05-20T07:34:25;435.80;2304.00
70593;DHT22;58294;42.988;20.338;2023-05-20T07:36:51;436.00;2278.40
70593;DHT22;58294;42.988;20.338;2023-05-20T07:39:18;460.80;2380.80
70593;DHT22;58294;42.988;20.338;2023-05-20T07:41:44;460.90;2252.80
70593;DHT22;58294;42.988;20.338;2023-05-20T07:44:10;461.00;2176.00
70593;DHT22;58294;42.988;20.338;2023-05-20T07:46:37;461.20;2227.20
70593;DHT22;58294;42.988;20.338;2023-05-20T07:49:04;461.40;2252.80
70593;DHT22;58294;42.988;20.338;2023-05-20T07:51:30;461.50;2150.40
70593;DHT22;58294;42.988;20.338;2023-05-20T07:53:56;461.70;2048.00
70593;DHT22;58294;42.988;20.338;2023-05-20T07:59:06;486.70;2022.40
70593;DHT22;58294;42.988;20.338;2023-05-20T08:01:32;486.70;1971.20
70593;DHT22;58294;42.988;20.338;2023-05-20T08:03:59;486.80;2150.40
70593;DHT22;58294;42.988;20.338;2023-05-20T08:06:25;486.90;1996.80
70593;DHT22;58294;42.988;20.338;2023-05-20T08:18:39;512.20;1817.60
70593;DHT22;58294;42.988;20.338;2023-05-20T08:21:06;512.10;1715.20
70593;DHT22;58294;42.988;20.338;2023-05-20T08:23:35;512.50;1766.40
70593;DHT22;58294;42.988;20.338;2023-05-20T08:26:01;512.40;1715.20
70593;DHT22;58294;42.988;20.338;2023-05-20T08:28:28;512.40;1715.20
70593;DHT22;58294;42.988;20.338;2023-05-20T08:30:54;512.40;1740.80
70593;DHT22;58294;42.988;20.338;2023-05-20T08:35:49;512.60;1638.40
70593;DHT22;58294;42.988;20.338;2023-05-20T08:38:15;512.60;1612.80
70593;DHT22;58294;42.988;20.338;2023-05-20T08:48:02;537.70;1587.20
70593;DHT22;58294;42.988;20.338;2023-05-20T08:50:32;537.80;1664.00
70593;DHT22;58294;42.988;20.338;2023-05-20T08:55:58;537.90;1561.60
70593;DHT22;58294;42.988;20.338;2023-05-20T09:00:53;538.00;1459.20
70593;DHT22;58294;42.988;20.338;2023-05-20T09:03:19;537.90;1484.80
70593;DHT22;58294;42.988;20.338;2023-05-20T09:05:46;537.90;1510.40
70593;DHT22;58294;42.988;20.338;2023-05-20T09:08:12;538.00;1510.40
70593;DHT22;58294;42.988;20.338;2023-05-20T09:10:39;538.20;1484.80
70593;DHT22;58294;42.988;20.338;2023-05-20T09:13:07;538.10;1459.20
70593;DHT22;58294;42.988;20.338;2023-05-20T09:18:00;538.40;1484.80
70593;DHT22;58294;42.988;20.338;2023-05-20T09:20:27;538.40;1408.00
70593;DHT22;58294;42.988;20.338;2023-05-20T09:23:00;538.40;1408.00
70593;DHT22;58294;42.988;20.338;2023-05-20T09:25:26;538.40;1459.20
70593;DHT22;58294;42.988;20.338;2023-05-20T09:27:52;563.20;1484.80
70593;DHT22;58294;42.988;20.338;2023-05-20T09:30:19;563.60;1484.80
70593;DHT22;58294;42.988;20.338;2023-05-20T09:32:55;563.50;1433.60
70593;DHT22;58294;42.988;20.338;2023-05-20T09:35:22;563.80;1459.20
70593;DHT22;58294;42.988;20.338;2023-05-20T10:30:18;614.90;1664.00
70593;DHT22;58294;42.988;20.338;2023-05-20T10:32:54;615.30;1459.20
70593;DHT22;58294;42.988;20.338;2023-05-20T10:35:25;640.60;1356.80
70593;DHT22;58294;42.988;20.338;2023-05-20T10:37:52;666.30;1536.00
70593;DHT22;58294;42.988;20.338;2023-05-20T10:40:22;691.40;1331.20
70593;DHT22;58294;42.988;20.338;2023-05-20T10:42:48;717.10;1331.20
70593;DHT22;58294;42.988;20.338;2023-05-20T10:45:28;717.30;1254.40
70593;DHT22;58294;42.988;20.338;2023-05-20T10:47:56;717.30;1228.80
70593;DHT22;58294;42.988;20.338;2023-05-20T10:53:01;743.30;998.40
70593;DHT22;58294;42.988;20.338;2023-05-20T11:00:26;768.70;998.40
70593;DHT22;58294;42.988;20.338;2023-05-20T11:05:20;794.00;972.80
70593;DHT22;58294;42.988;20.338;2023-05-20T11:07:46;794.10;998.40
70593;DHT22;58294;42.988;20.338;2023-05-20T11:10:11;794.10;896.00
70593;DHT22;58294;42.988;20.338;2023-05-20T11:15:04;794.30;793.60
70593;DHT22;58294;42.988;20.338;2023-05-20T11:17:31;794.10;768.00
70593;DHT22;58294;42.988;20.338;2023-05-20T11:19:57;793.60;844.80
70593;DHT22;58294;42.988;20.338;2023-05-20T11:22:25;793.60;844.80
70593;DHT22;58294;42.988;20.338;2023-05-20T11:24:51;793.70;870.40
70593;DHT22;58294;42.988;20.338;2023-05-20T11:34:36;819.40;844.80
70593;DHT22;58294;42.988;20.338;2023-05-20T11:37:06;819.30;844.80
70593;DHT22;58294;42.988;20.338;2023-05-20T11:51:50;844.80;768.00
70593;DHT22;58294;42.988;20.338;2023-05-20T11:54:16;819.30;691.20
70593;DHT22;58294;42.988;20.338;2023-05-20T11:56:43;819.70;768.00
70593;DHT22;58294;42.988;20.338;2023-05-20T11:59:09;820.00;768.00
70593;DHT22;58294;42.988;20.338;2023-05-20T12:01:37;820.00;716.80
70593;DHT22;58294;42.988;20.338;2023-05-20T12:06:32;844.80;742.40
70593;DHT22;58294;42.988;20.338;2023-05-20T12:09:02;820.00;691.20
70593;DHT22;58294;42.988;20.338;2023-05-20T12:11:35;819.50;691.20
70593;DHT22;58294;42.988;20.338;2023-05-20T12:14:02;820.00;716.80
70593;DHT22;58294;42.988;20.338;2023-05-20T12:16:30;819.50;716.80
70593;DHT22;58294;42.988;20.338;2023-05-20T12:21:23;844.80;742.40
70593;DHT22;58294;42.988;20.338;2023-05-20T12:23:49;820.10;614.40
70593;DHT22;58294;42.988;20.338;2023-05-20T12:26:15;819.80;742.40
70593;DHT22;58294;42.988;20.338;2023-05-20T12:28:41;819.90;691.20
70593;DHT22;58294;42.988;20.338;2023-05-20T12:31:07;819.70;665.60
70593;DHT22;58294;42.988;20.338;2023-05-20T12:33:32;819.90;691.20
70593;DHT22;58294;42.988;20.338;2023-05-20T12:35:58;845.00;793.60
70593;DHT22;58294;42.988;20.338;2023-05-20T12:38:24;845.60;742.40
70593;DHT22;58294;42.988;20.338;2023-05-20T12:40:50;870.80;768.00
70593;DHT22;58294;42.988;20.338;2023-05-20T12:43:16;870.90;716.80
70593;DHT22;58294;42.988;20.338;2023-05-20T12:45:41;871.00;691.20
70593;DHT22;58294;42.988;20.338;2023-05-20T12:48:07;871.20;614.40
70593;DHT22;58294;42.988;20.338;2023-05-20T12:50:33;871.20;588.80
70593;DHT22;58294;42.988;20.338;2023-05-20T12:52:59;870.90;640.00
70593;DHT22;58294;42.988;20.338;2023-05-20T12:55:24;870.80;640.00
70593;DHT22;58294;42.988;20.338;2023-05-20T12:57:50;871.10;640.00
70593;DHT22;58294;42.988;20.338;2023-05-20T13:00:16;871.20;614.40
70593;DHT22;58294;42.988;20.338;2023-05-20T13:02:42;871.00;614.40
70593;DHT22;58294;42.988;20.338;2023-05-20T13:05:08;870.70;563.20
70593;DHT22;58294;42.988;20.338;2023-05-20T13:07:34;845.60;588.80
70593;DHT22;58294;42.988;20.338;2023-05-20T13:10:00;845.40;614.40
70593;DHT22;58294;42.988;20.338;2023-05-20T13:12:26;845.10;614.40
70593;DHT22;58294;42.988;20.338;2023-05-20T13:14:52;819.80;588.80
70593;DHT22;58294;42.988;20.338;2023-05-20T13:17:18;794.50;563.20
70593;DHT22;58294;42.988;20.338;2023-05-20T13:19:44;793.80;614.40
70593;DHT22;58294;42.988;20.338;2023-05-20T13:22:13;768.40;588.80
70593;DHT22;58294;42.988;20.338;2023-05-20T13:24:39;743.10;640.00
70593;DHT22;58294;42.988;20.338;2023-05-20T13:27:05;742.60;665.60
70593;DHT22;58294;42.988;20.338;2023-05-20T13:29:31;717.60;640.00
70593;DHT22;58294;42.988;20.338;2023-05-20T13:31:56;717.20;665.60
70593;DHT22;58294;42.988;20.338;2023-05-20T13:34:23;716.80;691.20
70593;DHT22;58294;42.988;20.338;2023-05-20T13:36:48;691.70;691.20
70593;DHT22;58294;42.988;20.338;2023-05-20T13:39:15;691.50;716.80
70593;DHT22;58294;42.988;20.338;2023-05-20T13:41:41;691.40;742.40
70593;DHT22;58294;42.988;20.338;2023-05-20T13:44:07;691.30;742.40
70593;DHT22;58294;42.988;20.338;2023-05-20T13:46:32;691.30;742.40
70593;DHT22;58294;42.988;20.338;2023-05-20T13:48:58;691.20;768.00
70593;DHT22;58294;42.988;20.338;2023-05-20T13:51:24;666.30;742.40
70593;DHT22;58294;42.988;20.338;2023-05-20T13:53:50;666.10;768.00
70593;DHT22;58294;42.988;20.338;2023-05-20T13:56:16;666.00;768.00
70593;DHT22;58294;42.988;20.338;2023-05-20T13:58:42;665.80;793.60
70593;DHT22;58294;42.988;20.338;2023-05-20T14:01:08;665.70;768.00
70593;DHT22;58294;42.988;20.338;2023-05-20T14:03:36;665.60;768.00
70593;DHT22;58294;42.988;20.338;2023-05-20T14:06:04;640.80;742.40
70593;DHT22;58294;42.988;20.338;2023-05-20T14:08:30;640.70;768.00
70593;DHT22;58294;42.988;20.338;2023-05-20T14:10:56;640.60;793.60
70593;DHT22;58294;42.988;20.338;2023-05-20T14:13:23;640.60;793.60
70593;DHT22;58294;42.988;20.338;2023-05-20T14:15:49;640.60;793.60
70593;DHT22;58294;42.988;20.338;2023-05-20T14:18:18;640.50;793.60
70593;DHT22;58294;42.988;20.338;2023-05-20T14:20:44;640.30;793.60
70593;DHT22;58294;42.988;20.338;2023-05-20T14:23:11;640.10;819.20
70593;DHT22;58294;42.988;20.338;2023-05-20T14:25:37;640.00;793.60
70593;DHT22;58294;42.988;20.338;2023-05-20T14:28:03;615.20;819.20
70593;DHT22;58294;42.988;20.338;2023-05-20T14:30:29;615.10;819.20
70593;DHT22;58294;42.988;20.338;2023-05-20T14:32:54;615.10;819.20
70593;DHT22;58294;42.988;20.338;2023-05-20T14:35:20;615.10;844.80
70593;DHT22;58294;42.988;20.338;2023-05-20T14:37:46;615.10;844.80
70593;DHT22;58294;42.988;20.338;2023-05-20T14:40:12;615.10;844.80
70593;DHT22;58294;42.988;20.338;2023-05-20T14:42:38;615.10;870.40
70593;DHT22;58294;42.988;20.338;2023-05-20T14:45:04;615.10;844.80
70593;DHT22;58294;42.988;20.338;2023-05-20T14:47:30;615.10;844.80
70593;DHT22;58294;42.988;20.338;2023-05-20T14:49:56;615.10;844.80
70593;DHT22;58294;42.988;20.338;2023-05-20T14:52:22;615.10;844.80
70593;DHT22;58294;42.988;20.338;2023-05-20T14:54:48;615.10;844.80
70593;DHT22;58294;42.988;20.338;2023-05-20T14:57:14;615.10;844.80
70593;DHT22;58294;42.988;20.338;2023-05-20T14:59:43;615.00;844.80
70593;DHT22;58294;42.988;20.338;2023-05-20T15:02:09;615.00;870.40
70593;DHT22;58294;42.988;20.338;2023-05-20T15:04:35;614.90;844.80
70593;DHT22;58294;42.988;20.338;2023-05-20T15:07:01;614.90;844.80
70593;DHT22;58294;42.988;20.338;2023-05-20T15:09:27;614.80;870.40
70593;DHT22;58294;42.988;20.338;2023-05-20T15:11:53;614.80;870.40
70593;DHT22;58294;42.988;20.338;2023-05-20T15:14:19;614.70;870.40
70593;DHT22;58294;42.988;20.338;2023-05-20T15:16:44;614.70;870.40
70593;DHT22;58294;42.988;20.338;2023-05-20T15:19:11;614.60;896.00
70593;DHT22;58294;42.988;20.338;2023-05-20T15:21:38;614.60;896.00
70593;DHT22;58294;42.988;20.338;2023-05-20T15:24:04;614.50;921.60
70593;DHT22;58294;42.988;20.338;2023-05-20T15:26:30;614.50;947.20
70593;DHT22;58294;42.988;20.338;2023-05-20T15:28:56;614.40;947.20
70593;DHT22;58294;42.988;20.338;2023-05-20T15:31:22;614.40;921.60
70593;DHT22;58294;42.988;20.338;2023-05-20T15:33:49;589.60;972.80
70593;DHT22;58294;42.988;20.338;2023-05-20T15:36:14;589.50;998.40
70593;DHT22;58294;42.988;20.338;2023-05-20T15:38:41;589.40;998.40
70593;DHT22;58294;42.988;20.338;2023-05-20T15:41:08;589.40;998.40
70593;DHT22;58294;42.988;20.338;2023-05-20T15:43:37;589.40;998.40
70593;DHT22;58294;42.988;20.338;2023-05-20T15:46:02;589.50;998.40
70593;DHT22;58294;42.988;20.338;2023-05-20T15:48:28;589.50;998.40
70593;DHT22;58294;42.988;20.338;2023-05-20T15:50:54;589.40;1024.00
70593;DHT22;58294;42.988;20.338;2023-05-20T15:53:20;589.40;1024.00
70593;DHT22;58294;42.988;20.338;2023-05-20T15:55:45;589.30;1024.00
70593;DHT22;58294;42.988;20.338;2023-05-20T15:58:11;589.30;998.40
70593;DHT22;58294;42.988;20.338;2023-05-20T16:00:37;589.20;998.40
70593;DHT22;58294;42.988;20.338;2023-05-20T16:03:03;589.20;998.40
70593;DHT22;58294;42.988;20.338;2023-05-20T16:05:29;589.20;998.40
70593;DHT22;58294;42.988;20.338;2023-05-20T16:07:55;589.20;998.40
70593;DHT22;58294;42.988;20.338;2023-05-20T16:10:21;589.10;1024.00
70593;DHT22;58294;42.988;20.338;2023-05-20T16:12:47;589.00;1024.00
70593;DHT22;58294;42.988;20.338;2023-05-20T16:15:13;589.00;1024.00
70593;DHT22;58294;42.988;20.338;2023-05-20T16:17:39;588.90;998.40
70593;DHT22;58294;42.988;20.338;2023-05-20T16:20:05;564.10;1024.00
70593;DHT22;58294;42.988;20.338;2023-05-20T16:22:35;564.10;1049.60
70593;DHT22;58294;42.988;20.338;2023-05-20T16:25:02;564.00;1049.60
70593;DHT22;58294;42.988;20.338;2023-05-20T16:27:28;563.90;1049.60
70593;DHT22;58294;42.988;20.338;2023-05-20T16:29:54;563.80;1049.60
70593;DHT22;58294;42.988;20.338;2023-05-20T16:32:20;563.80;1049.60
70593;DHT22;58294;42.988;20.338;2023-05-20T16:34:48;563.60;1075.20